Flight Track Log - Related Links

Times and Time Zones

All times are in EDT time to prevent confusion due to time zone crossing. See the SWA574 flight status page for this flight to view local times or setup timezone preferences in your user account.

Time Position Orientation Groundspeed Altitude Reporting Facility
EDT Latitude Longitude Course Direction KTS MPH feet Rate Location/Type
Tue 06:55:40 PM 37.3850 -121.9556 345° North 154 177 1,800  Level Oakland Center
Tue 06:56:41 PM 37.4383 -121.9736 345° North 211 243 4,500 1,574 Climbing Oakland Center
Tue 06:57:42 PM 37.4297 -121.8972 98° East 220 253 5,000 738 Climbing Oakland Center
Tue 06:58:43 PM 37.3828 -121.8525 143° Southeast 214 246 6,000 2,446 Climbing Oakland Center
Tue 07:00:46 PM 37.2678 -121.7250 122° Southeast 300 345 12,500 3,457 Climbing Oakland Center
Tue 07:01:47 PM 37.1975 -121.6425 137° Southeast 341 392 16,600 3,610 Climbing Oakland Center
Tue 07:02:49 PM 37.1239 -121.5567 137° Southeast 357 411 19,900 3,073 Climbing Oakland Center
Tue 07:03:50 PM 37.0450 -121.4731 140° Southeast 370 426 22,900 2,754 Climbing Oakland Center
Tue 07:04:51 PM 36.9617 -121.3819 139° Southeast 391 450 25,500 2,508 Climbing Oakland Center
Tue 07:05:52 PM 36.8747 -121.2864 139° Southeast 408 470 28,000 2,262 Climbing Oakland Center
Tue 07:06:53 PM 36.7806 -121.1867 140° Southeast 424 488 30,100 1,951 Climbing Oakland Center
Tue 07:07:55 PM 36.6853 -121.0844 139° Southeast 444 511 32,000 2,146 Climbing Oakland Center
Tue 07:08:56 PM 36.5922 -120.9828 139° Southeast 446 513 34,500 2,213 Climbing Oakland Center
Tue 07:09:57 PM 36.4803 -120.8644 140° Southeast 444 511 36,500 1,475 Climbing Oakland Center
Tue 07:10:58 PM 36.3858 -120.7611 139° Southeast 451 519 37,500 1,220 Climbing Oakland Center
Tue 07:12:00 PM 36.2886 -120.6564 139° Southeast 458 527 39,000 1,268 Climbing Oakland Center
Tue 07:13:01 PM 36.1908 -120.5531 140° Southeast 459 528 40,100 984 Climbing Oakland Center
Tue 07:14:02 PM 36.0925 -120.4486 139° Southeast 461 531 41,000 439 Climbing Oakland Center
Tue 07:15:04 PM 35.9944 -120.3439 139° Southeast 461 531 41,000  Level Oakland Center
Tue 07:16:05 PM 35.8947 -120.2394 140° Southeast 465 535 41,000  Level Oakland Center
Tue 07:17:06 PM 35.7947 -120.1342 139° Southeast 465 535 41,000  Level Oakland Center
Tue 07:18:07 PM 35.6956 -120.0286 139° Southeast 466 536 41,000  Level Oakland Center
Tue 07:19:09 PM 35.5925 -119.9286 142° Southeast 466 536 41,000  Level Oakland Center
Tue 07:20:12 PM 35.4625 -119.8206 146° Southeast 461 531 41,000  Level Los Angeles Center
Tue 07:21:14 PM 35.3578 -119.7278 144° Southeast 461 531 41,000  Level Los Angeles Center
Tue 07:22:16 PM 35.2528 -119.6378 145° Southeast 461 531 41,000  Level Los Angeles Center
Tue 07:23:18 PM 35.1464 -119.5467 145° Southeast 461 531 41,000  Level Los Angeles Center
Tue 07:24:20 PM 35.0411 -119.4578 145° Southeast 461 531 41,000  Level Los Angeles Center
Tue 07:25:22 PM 34.9372 -119.3681 145° Southeast 460 529 41,000  Level Los Angeles Center
Tue 07:26:24 PM 34.8319 -119.2789 145° Southeast 460 529 41,000  Level Los Angeles Center
Tue 07:28:28 PM 34.5978 -119.0853 146° Southeast 462 532 41,000  Level Los Angeles Center
Tue 07:29:30 PM 34.4925 -118.9953 145° Southeast 463 533 41,000  Level Los Angeles Center
Tue 07:30:32 PM 34.3853 -118.9069 146° Southeast 464 534 41,000 -321 Level Los Angeles Center
Tue 07:32:37 PM 34.1856 -118.6994 139° Southeast 474 545 40,000 -706 Descending Los Angeles Center
Tue 07:33:39 PM 34.0664 -118.5744 139° Southeast 475 547 38,800 -1,016 Descending Los Angeles Center
Tue 07:34:41 PM 33.9675 -118.4694 139° Southeast 472 543 37,900 -871 Descending Los Angeles Center
Tue 07:35:43 PM 33.8758 -118.3567 134° Southeast 470 541 37,000 -1,355 Descending Los Angeles Center
Tue 07:36:45 PM 33.7917 -118.2553 135° Southeast 468 539 35,100 -2,468 Descending Los Angeles Center
Tue 07:37:47 PM 33.6942 -118.1278 133° Southeast 458 527 31,900 -2,742 Descending Los Angeles Center
Tue 07:39:51 PM 33.5283 -117.9161 129° Southeast 432 497 26,600 -2,613 Descending Los Angeles Center
Tue 07:40:53 PM 33.4506 -117.8178 133° Southeast 412 474 23,800 -2,758 Descending Los Angeles Center
Tue 07:41:55 PM 33.3600 -117.7033 133° Southeast 399 459 20,900 -2,419 Descending Los Angeles Center
Tue 07:42:57 PM 33.2872 -117.6125 134° Southeast 382 440 18,800 -2,160 Descending Los Angeles Center
Tue 07:43:35 PM 33.2333 -117.5500 136° Southeast 372 428 17,300 -2,265 Descending Southern California TRACON
Tue 07:44:35 PM 33.1500 -117.4833 146° Southeast 372 428 15,100 -2,550 Descending Southern California TRACON
Tue 07:45:35 PM 33.0667 -117.4167 146° Southeast 370 426 12,200 -2,400 Descending Southern California TRACON
Tue 07:46:35 PM 32.9833 -117.3500 146° Southeast 354 407 10,300 -1,300 Descending Southern California TRACON
Tue 07:47:35 PM 32.9167 -117.2833 140° Southeast 301 346 9,600 -950 Descending Southern California TRACON
Tue 07:48:35 PM 32.8500 -117.2333 148° Southeast 286 329 8,400 -1,011 Descending Southern California TRACON
Tue 07:49:10 PM 32.8142 -117.2111 152° Southeast 288 331 8,000 -619 Descending Los Angeles Center
Tue 07:50:12 PM 32.7931 -117.1300 107° East 261 300 7,400 -774 Descending Los Angeles Center
Tue 07:51:14 PM 32.7775 -117.0519 103° East 250 288 6,400 -1,161 Descending Los Angeles Center
Tue 07:52:16 PM 32.7619 -116.9772 104° East 238 274 5,000 -774 Descending Los Angeles Center
Tue 07:53:18 PM 32.7172 -116.9350 142° Southeast 211 243 4,800 -629 Descending Los Angeles Center
Tue 07:54:20 PM 32.6842 -116.9867 233° Southwest 190 219 3,700 -1,056 Descending Los Angeles Center
Tue 07:55:23 PM 32.6981 -117.0428 286° West 180 207 2,600 -816 Descending Los Angeles Center
Tue 07:56:25 PM 32.7089 -117.0892 286° West 151 174 2,000 -677 Descending Los Angeles Center
Tue 07:57:27 PM 32.7189 -117.1283 287° West 130 150 1,200 -823 Descending Los Angeles Center
Tue 07:58:29 PM 32.7281 -117.1667 286° West 124 143 300 -871 Descending Los Angeles Center
Tue 08:00:00 PM 32.7333 -117.1833 257° West  Level FlightAware Approximate

Login

Don't have an account? Register now (free) for customized features, flight alerts, and more!